Time;durP1;ratioP1;P1;durP2;ratioP2;P2;SDS_P1;SDS_P2;PMS_P1;PMS_P2;Temp;Humidity;BMP_temperature;BMP_pressure;BME280_temperature;BME280_humidity;BME280_pressure;Samples;Min_cycle;Max_cycle;Signal;HPM_P1;HPM_P2
2021/01/09 00:02:15;;;;;;;20.48;10.95;;;1.90;91.40;;;;;;5073117;28;20180;-76
2021/01/09 00:04:42;;;;;;;20.30;10.90;;;1.90;91.30;;;;;;5062118;28;20205;-74
2021/01/09 00:07:11;;;;;;;24.42;10.70;;;2.00;91.30;;;;;;5069766;28;20267;-76
2021/01/09 00:09:37;;;;;;;21.73;10.27;;;2.00;91.10;;;;;;5072950;28;20188;-76
2021/01/09 00:12:04;;;;;;;25.63;12.02;;;2.00;90.80;;;;;;5055515;28;20191;-75
2021/01/09 00:14:30;;;;;;;21.58;11.13;;;2.00;90.70;;;;;;5051071;28;20303;-74
2021/01/09 00:16:56;;;;;;;25.43;12.43;;;1.90;90.70;;;;;;5053575;28;20295;-75
2021/01/09 00:19:21;;;;;;;24.03;11.53;;;1.90;90.70;;;;;;5051904;28;20435;-74
2021/01/09 00:21:47;;;;;;;24.50;11.47;;;1.80;91.00;;;;;;5052843;28;20457;-75
2021/01/09 00:24:13;;;;;;;26.17;12.67;;;1.80;91.30;;;;;;5050374;28;20212;-75
2021/01/09 00:26:39;;;;;;;18.17;11.97;;;1.90;91.40;;;;;;5058910;28;20199;-75
2021/01/09 00:29:05;;;;;;;20.90;10.87;;;2.00;91.30;;;;;;5053110;28;20209;-76
2021/01/09 00:31:32;;;;;;;22.63;11.80;;;2.10;90.90;;;;;;5050931;28;20450;-76
2021/01/09 00:33:58;;;;;;;22.48;11.27;;;2.00;90.50;;;;;;5061650;28;20219;-75
2021/01/09 00:36:23;;;;;;;23.27;10.97;;;2.00;90.50;;;;;;5053155;28;20232;-75
2021/01/09 00:38:49;;;;;;;20.30;10.70;;;2.00;90.40;;;;;;5062726;28;20183;-73
2021/01/09 00:41:15;;;;;;;26.23;11.97;;;1.90;90.40;;;;;;5054464;28;20184;-74
2021/01/09 00:43:40;;;;;;;25.27;12.10;;;1.90;90.60;;;;;;5051532;28;20201;-74
2021/01/09 00:46:06;;;;;;;23.93;11.83;;;1.90;90.70;;;;;;5048832;28;20192;-74
2021/01/09 00:48:32;;;;;;;22.43;11.43;;;1.90;90.80;;;;;;5049833;28;20273;-74
2021/01/09 00:50:58;;;;;;;27.73;12.20;;;2.00;90.80;;;;;;5051425;28;20242;-76
2021/01/09 00:53:23;;;;;;;23.70;11.93;;;2.00;90.80;;;;;;5062352;28;20656;-75
2021/01/09 00:55:49;;;;;;;23.57;11.03;;;2.00;90.80;;;;;;5066367;28;20208;-76
2021/01/09 00:58:15;;;;;;;24.90;12.03;;;2.00;90.60;;;;;;5065900;28;20186;-76
2021/01/09 01:00:41;;;;;;;23.13;11.40;;;2.00;90.60;;;;;;5065761;28;20603;-76
2021/01/09 01:03:06;;;;;;;22.93;10.60;;;2.00;90.70;;;;;;5062906;28;20187;-76
2021/01/09 01:05:32;;;;;;;19.13;10.77;;;2.00;90.70;;;;;;5066608;28;20208;-76
2021/01/09 01:07:58;;;;;;;23.27;11.33;;;2.00;90.70;;;;;;5050803;28;20220;-76
2021/01/09 01:10:24;;;;;;;27.67;11.33;;;2.00;91.00;;;;;;5051906;28;20234;-76
2021/01/09 01:12:52;;;;;;;21.83;11.90;;;2.00;91.00;;;;;;5062828;28;20180;-76
2021/01/09 01:15:18;;;;;;;28.67;13.18;;;2.00;90.70;;;;;;5052066;28;20265;-75
2021/01/09 01:17:47;;;;;;;22.23;11.50;;;1.90;91.00;;;;;;5061723;28;20271;-77
2021/01/09 01:20:14;;;;;;;30.40;11.68;;;1.90;91.30;;;;;;5057942;28;20180;-76
2021/01/09 01:22:40;;;;;;;23.05;11.70;;;2.10;91.10;;;;;;5059064;28;20655;-76
2021/01/09 01:25:06;;;;;;;25.90;12.27;;;2.10;90.60;;;;;;5050276;28;20235;-76
2021/01/09 01:27:32;;;;;;;28.65;12.27;;;2.20;90.80;;;;;;5058307;28;20207;-76
2021/01/09 01:29:58;;;;;;;26.13;11.65;;;2.20;90.60;;;;;;5068690;28;20272;-76
2021/01/09 01:32:24;;;;;;;22.70;11.43;;;2.30;90.40;;;;;;5059086;28;20277;-76
2021/01/09 01:34:49;;;;;;;24.97;11.40;;;2.40;90.10;;;;;;5052991;28;20604;-76
2021/01/09 01:37:15;;;;;;;21.87;10.43;;;2.30;89.90;;;;;;5061515;28;20698;-75
2021/01/09 01:39:41;;;;;;;24.17;10.23;;;2.30;89.70;;;;;;5070520;28;20447;-76
2021/01/09 01:42:07;;;;;;;21.60;10.63;;;2.20;89.90;;;;;;5071284;28;20180;-75
2021/01/09 01:44:33;;;;;;;23.10;11.80;;;2.20;90.00;;;;;;5052901;28;20208;-74
2021/01/09 01:47:01;;;;;;;22.13;11.93;;;2.20;90.40;;;;;;5051465;28;20267;-75
2021/01/09 01:49:27;;;;;;;22.55;10.68;;;2.20;90.60;;;;;;5063890;28;20199;-74
2021/01/09 01:51:52;;;;;;;27.67;12.50;;;2.20;90.70;;;;;;5059980;28;20187;-74
2021/01/09 01:54:19;;;;;;;23.37;10.87;;;2.20;90.70;;;;;;5055616;28;20212;-75
2021/01/09 01:56:48;;;;;;;25.77;11.85;;;2.20;90.40;;;;;;5054521;28;20246;-75
2021/01/09 01:59:14;;;;;;;25.35;11.50;;;2.10;90.60;;;;;;5068416;28;20295;-75
2021/01/09 02:01:42;;;;;;;22.97;12.10;;;2.10;90.70;;;;;;5057554;28;20189;-75
2021/01/09 02:04:08;;;;;;;29.42;12.10;;;2.00;91.00;;;;;;5052806;28;20446;-75
2021/01/09 02:06:35;;;;;;;24.03;11.57;;;2.10;91.10;;;;;;5049888;28;20583;-75
2021/01/09 02:09:02;;;;;;;30.02;13.27;;;2.00;91.10;;;;;;5066087;28;20195;-74
2021/01/09 02:11:37;;;;;;;26.00;11.88;;;2.00;91.10;;;;;;5057951;28;20215;-76
2021/01/09 02:14:08;;;;;;;25.10;12.07;;;1.90;91.30;;;;;;5067492;28;20215;-74
2021/01/09 02:16:34;;;;;;;28.77;12.20;;;1.80;91.50;;;;;;5069976;28;20208;-75
2021/01/09 02:19:01;;;;;;;27.77;12.45;;;1.80;91.80;;;;;;5068931;28;20241;-75
2021/01/09 02:21:43;;;;;;;27.38;13.35;;;1.90;91.80;;;;;;5071655;28;20534;-75
2021/01/09 02:24:13;;;;;;;27.10;13.02;;;1.90;91.60;;;;;;5040206;28;20207;-75
2021/01/09 02:26:39;;;;;;;26.85;12.43;;;2.00;91.80;;;;;;5056900;28;20207;-74
2021/01/09 02:29:05;;;;;;;26.10;11.57;;;2.10;91.60;;;;;;5065263;28;20573;-75
2021/01/09 02:31:42;;;;;;;31.27;13.27;;;2.10;91.20;;;;;;5065081;28;20444;-75
2021/01/09 02:34:12;;;;;;;28.65;13.45;;;2.10;91.30;;;;;;5055897;28;20802;-74
2021/01/09 02:36:40;;;;;;;28.42;13.00;;;2.10;91.30;;;;;;5069753;28;20549;-74
2021/01/09 02:39:07;;;;;;;47.75;13.50;;;2.20;91.40;;;;;;5056717;28;20177;-77
2021/01/09 02:41:35;;;;;;;29.33;13.85;;;2.20;91.30;;;;;;5061563;28;20184;-78
2021/01/09 02:44:09;;;;;;;29.17;16.02;;;2.20;91.00;;;;;;5053339;28;20203;-75
2021/01/09 02:46:38;;;;;;;30.25;12.48;;;2.20;91.10;;;;;;5068793;28;20640;-75
2021/01/09 02:49:05;;;;;;;27.23;12.60;;;2.10;91.10;;;;;;5070137;28;20184;-75
2021/01/09 02:51:31;;;;;;;28.30;14.13;;;2.10;91.20;;;;;;5056892;28;20195;-76
2021/01/09 02:53:57;;;;;;;28.38;12.80;;;2.20;91.40;;;;;;5063017;28;20757;-73
2021/01/09 02:56:22;;;;;;;30.07;13.57;;;2.20;91.30;;;;;;5062056;28;20204;-75
2021/01/09 02:58:48;;;;;;;26.47;13.20;;;2.10;91.30;;;;;;5054476;28;20947;-76
2021/01/09 03:01:14;;;;;;;29.53;14.57;;;2.10;91.60;;;;;;5061438;28;20211;-75
2021/01/09 03:03:40;;;;;;;31.17;14.03;;;2.10;91.60;;;;;;5058574;28;20479;-74
2021/01/09 03:06:06;;;;;;;31.63;13.07;;;2.00;91.70;;;;;;5064866;28;20247;-75
2021/01/09 03:08:31;;;;;;;29.00;14.40;;;2.00;91.70;;;;;;5051397;28;20246;-74
2021/01/09 03:10:57;;;;;;;31.97;13.77;;;1.90;92.00;;;;;;5062408;28;20191;-76
2021/01/09 03:13:23;;;;;;;39.50;15.30;;;1.90;92.40;;;;;;5049196;28;20422;-74
2021/01/09 03:15:49;;;;;;;32.17;14.80;;;1.90;92.40;;;;;;5060935;28;20562;-75
2021/01/09 03:18:14;;;;;;;27.27;14.23;;;2.00;92.40;;;;;;5057381;28;20195;-74
2021/01/09 03:20:40;;;;;;;25.20;12.80;;;2.00;92.50;;;;;;5054327;28;20261;-76
2021/01/09 03:23:06;;;;;;;30.80;15.77;;;2.10;92.40;;;;;;5061152;28;20194;-76
2021/01/09 03:25:32;;;;;;;32.07;13.97;;;2.20;92.20;;;;;;5054136;28;20713;-76
2021/01/09 03:27:57;;;;;;;32.67;14.17;;;2.20;92.20;;;;;;5047769;28;20689;-76
2021/01/09 03:30:23;;;;;;;26.80;12.90;;;2.20;92.00;;;;;;5058840;28;20183;-75
2021/01/09 03:32:50;;;;;;;32.83;14.00;;;2.20;91.80;;;;;;5049252;28;20254;-75
2021/01/09 03:35:16;;;;;;;32.75;14.93;;;2.20;92.00;;;;;;5058084;28;20456;-76
2021/01/09 03:37:41;;;;;;;29.67;13.83;;;2.20;92.00;;;;;;5051220;28;20554;-74
2021/01/09 03:40:08;;;;;;;33.83;15.03;;;2.20;91.70;;;;;;5049609;28;20415;-76
2021/01/09 03:42:33;;;;;;;32.00;14.65;;;2.20;91.70;;;;;;5049413;28;20184;-75
2021/01/09 03:44:59;;;;;;;37.63;17.20;;;2.10;91.80;;;;;;5059699;28;20283;-74
2021/01/09 03:47:25;;;;;;;35.10;14.77;;;2.10;92.00;;;;;;5053272;28;20184;-74
2021/01/09 03:49:51;;;;;;;33.65;15.35;;;2.10;92.10;;;;;;5049581;28;20188;-74
2021/01/09 03:52:17;;;;;;;37.73;15.30;;;2.10;92.20;;;;;;5070096;28;20188;-74
2021/01/09 03:54:43;;;;;;;39.53;16.67;;;2.10;92.20;;;;;;5071469;28;20621;-74
2021/01/09 03:57:09;;;;;;;32.07;15.23;;;2.20;92.30;;;;;;5072473;28;20453;-73
2021/01/09 03:59:34;;;;;;;33.13;14.18;;;2.20;92.20;;;;;;5060545;28;20184;-72
2021/01/09 04:02:00;;;;;;;40.30;15.70;;;2.00;92.10;;;;;;5052609;28;20322;-76
2021/01/09 04:04:26;;;;;;;32.17;14.50;;;2.00;92.30;;;;;;5062701;28;20947;-74
2021/01/09 04:06:52;;;;;;;30.93;15.27;;;2.00;92.40;;;;;;5067056;28;20189;-74
2021/01/09 04:09:17;;;;;;;30.10;15.10;;;2.10;92.60;;;;;;5063728;28;20203;-75
2021/01/09 04:11:43;;;;;;;32.63;14.33;;;2.20;92.50;;;;;;5059144;28;20195;-75
2021/01/09 04:14:09;;;;;;;31.60;14.53;;;2.20;92.30;;;;;;5058839;28;20300;-75
2021/01/09 04:16:35;;;;;;;38.30;17.90;;;2.10;92.20;;;;;;5064405;28;20299;-75
2021/01/09 04:19:02;;;;;;;35.30;16.20;;;2.10;92.40;;;;;;5065488;28;20199;-75
2021/01/09 04:21:27;;;;;;;37.25;15.38;;;2.00;92.50;;;;;;5056803;28;20180;-74
2021/01/09 04:23:53;;;;;;;36.03;16.60;;;1.90;92.70;;;;;;5063990;28;20256;-74
2021/01/09 04:26:19;;;;;;;39.60;18.03;;;2.00;92.90;;;;;;5058010;28;20200;-74
2021/01/09 04:28:45;;;;;;;42.73;17.40;;;2.00;93.00;;;;;;5074218;28;20184;-74
2021/01/09 04:31:14;;;;;;;33.83;16.40;;;1.90;93.00;;;;;;5057029;28;20184;-74
2021/01/09 04:33:40;;;;;;;40.25;17.65;;;2.00;93.10;;;;;;5052538;28;20378;-75
2021/01/09 04:36:06;;;;;;;38.10;16.63;;;1.90;93.10;;;;;;5056273;28;20207;-76
2021/01/09 04:38:32;;;;;;;36.25;16.52;;;1.90;93.50;;;;;;5059817;28;20181;-74
2021/01/09 04:40:58;;;;;;;41.40;18.60;;;2.00;93.50;;;;;;5055911;28;20188;-75
2021/01/09 04:43:25;;;;;;;39.78;16.83;;;2.00;93.60;;;;;;5074695;28;20190;-75
2021/01/09 04:45:52;;;;;;;44.15;18.10;;;2.00;93.60;;;;;;5058028;28;20188;-75
2021/01/09 04:48:19;;;;;;;41.53;17.23;;;2.00;93.50;;;;;;5055528;28;20576;-75
2021/01/09 04:50:50;;;;;;;43.33;19.17;;;1.90;93.50;;;;;;5061856;28;20184;-74
2021/01/09 04:53:18;;;;;;;43.35;18.30;;;2.00;93.70;;;;;;5094290;28;20199;-74
2021/01/09 04:55:46;;;;;;;38.92;18.48;;;1.90;93.60;;;;;;5063596;28;20208;-74
2021/01/09 04:58:12;;;;;;;37.10;17.15;;;1.90;93.80;;;;;;5056454;28;20678;-73
2021/01/09 05:00:38;;;;;;;41.17;18.27;;;1.90;94.00;;;;;;5064820;28;20196;-75
2021/01/09 05:03:04;;;;;;;39.03;16.23;;;1.90;94.20;;;;;;5051605;28;20548;-75
2021/01/09 05:05:30;;;;;;;36.80;17.07;;;1.90;94.20;;;;;;5057967;28;20485;-74
2021/01/09 05:07:56;;;;;;;37.83;17.60;;;1.90;94.10;;;;;;5058031;28;21278;-74
2021/01/09 05:10:23;;;;;;;44.58;17.85;;;1.90;94.10;;;;;;5038767;28;20553;-75
2021/01/09 05:12:48;;;;;;;39.55;18.95;;;1.90;94.30;;;;;;5050998;28;20279;-74
2021/01/09 05:15:14;;;;;;;42.40;17.90;;;2.00;94.30;;;;;;5070426;28;20295;-74
2021/01/09 05:17:40;;;;;;;42.20;18.70;;;2.00;94.10;;;;;;5056427;28;20189;-75
2021/01/09 05:20:07;;;;;;;39.00;17.63;;;2.00;94.00;;;;;;5057309;28;20465;-74
2021/01/09 05:22:36;;;;;;;43.53;20.10;;;2.10;94.00;;;;;;5056160;28;20419;-75
2021/01/09 05:25:03;;;;;;;37.58;17.60;;;2.10;94.00;;;;;;5050498;28;20223;-75
2021/01/09 05:27:29;;;;;;;44.03;18.92;;;2.20;94.00;;;;;;5052767;28;20211;-75
2021/01/09 05:29:55;;;;;;;47.28;18.63;;;2.20;93.80;;;;;;5072569;28;20746;-75
2021/01/09 05:32:22;;;;;;;42.28;17.88;;;2.20;93.50;;;;;;5055889;28;20744;-75
2021/01/09 05:34:51;;;;;;;41.00;18.70;;;2.30;93.40;;;;;;5073479;28;20716;-75
2021/01/09 05:37:26;;;;;;;41.92;17.52;;;2.30;93.30;;;;;;5070669;28;20218;-76
2021/01/09 05:39:55;;;;;;;40.58;17.85;;;2.20;93.30;;;;;;5051955;28;20188;-75
2021/01/09 05:42:27;;;;;;;39.65;18.30;;;2.20;93.50;;;;;;5054535;28;20196;-75
2021/01/09 05:44:55;;;;;;;40.83;18.13;;;2.20;93.70;;;;;;5059966;28;20219;-76
2021/01/09 05:47:29;;;;;;;40.20;19.00;;;2.20;93.90;;;;;;5057691;28;20659;-75
2021/01/09 05:49:59;;;;;;;43.30;19.20;;;2.20;94.10;;;;;;5048238;28;20187;-76
2021/01/09 05:52:26;;;;;;;42.90;18.23;;;2.20;94.20;;;;;;5049629;28;20197;-75
2021/01/09 05:54:56;;;;;;;42.10;19.38;;;2.20;94.30;;;;;;5049713;28;20587;-75
2021/01/09 05:57:36;;;;;;;50.17;20.02;;;2.20;94.50;;;;;;5058573;28;20302;-76
2021/01/09 06:00:08;;;;;;;49.08;19.48;;;2.10;94.50;;;;;;5068916;28;20180;-75
2021/01/09 06:02:52;;;;;;;45.72;19.20;;;2.10;94.60;;;;;;5063628;28;20180;-74
2021/01/09 06:05:20;;;;;;;51.47;20.83;;;2.10;94.70;;;;;;5063590;28;20212;-75
2021/01/09 06:07:49;;;;;;;39.38;18.75;;;2.10;94.50;;;;;;5066589;28;20196;-75
2021/01/09 06:10:20;;;;;;;41.30;19.08;;;2.00;94.60;;;;;;5063166;28;20176;-74
2021/01/09 06:13:00;;;;;;;38.17;18.95;;;2.00;94.80;;;;;;5069976;28;20241;-74
2021/01/09 06:15:30;;;;;;;47.20;19.45;;;2.00;94.90;;;;;;5057526;28;20218;-74
2021/01/09 06:17:59;;;;;;;46.17;20.48;;;2.00;95.00;;;;;;5054263;28;20290;-74
2021/01/09 06:20:26;;;;;;;47.35;19.70;;;1.90;94.90;;;;;;5054913;28;20192;-75
2021/01/09 06:22:57;;;;;;;42.10;18.33;;;1.90;95.10;;;;;;5049396;28;20181;-75
2021/01/09 06:25:25;;;;;;;42.40;19.13;;;2.00;95.20;;;;;;5038165;28;20228;-76
2021/01/09 06:27:56;;;;;;;48.75;20.83;;;1.90;95.10;;;;;;5058881;28;20191;-76
2021/01/09 06:30:24;;;;;;;44.33;20.13;;;1.90;95.10;;;;;;5064649;28;20177;-75
2021/01/09 06:32:58;;;;;;;47.40;19.40;;;2.00;95.10;;;;;;5050292;28;20201;-75
2021/01/09 06:35:24;;;;;;;45.47;18.30;;;2.00;95.10;;;;;;5049420;28;20253;-75
2021/01/09 06:37:50;;;;;;;44.33;17.50;;;1.90;94.90;;;;;;5065211;28;20188;-76
2021/01/09 06:40:17;;;;;;;40.87;19.43;;;1.80;94.80;;;;;;5061592;28;20189;-76
2021/01/09 06:42:45;;;;;;;46.65;19.52;;;1.80;95.00;;;;;;5052389;28;20423;-73
2021/01/09 06:45:12;;;;;;;45.90;18.05;;;1.90;95.10;;;;;;5067737;28;20257;-74
2021/01/09 06:47:38;;;;;;;47.05;20.55;;;1.90;95.10;;;;;;5057666;28;20301;-74
2021/01/09 06:50:19;;;;;;;44.37;18.70;;;2.00;95.00;;;;;;5060851;28;20206;-75
2021/01/09 06:53:16;;;;;;;45.88;20.20;;;2.00;94.90;;;;;;5050005;28;20203;-74
2021/01/09 06:55:42;;;;;;;49.45;19.52;;;1.90;94.80;;;;;;5049793;28;20228;-75
2021/01/09 06:58:09;;;;;;;45.40;18.80;;;1.90;95.00;;;;;;5049961;28;20192;-76
2021/01/09 07:00:38;;;;;;;43.97;20.05;;;1.90;95.10;;;;;;5066526;28;20184;-75
2021/01/09 07:03:17;;;;;;;44.25;19.23;;;1.90;95.10;;;;;;5068304;28;20180;-74
2021/01/09 07:05:51;;;;;;;49.17;20.80;;;1.90;95.10;;;;;;5062379;28;20212;-75
2021/01/09 07:08:30;;;;;;;49.28;20.65;;;1.90;95.30;;;;;;5058082;28;20180;-76
2021/01/09 07:11:04;;;;;;;61.08;20.98;;;1.90;95.30;;;;;;5049147;28;20832;-75
2021/01/09 07:13:31;;;;;;;52.53;21.65;;;1.80;95.40;;;;;;5061502;28;20184;-75
2021/01/09 07:16:09;;;;;;;50.75;20.48;;;1.80;95.50;;;;;;5060689;28;20214;-75
2021/01/09 07:18:47;;;;;;;50.25;21.08;;;1.80;95.60;;;;;;5036271;28;20246;-75
2021/01/09 07:21:18;;;;;;;52.60;21.60;;;1.80;95.50;;;;;;5063157;28;20175;-75
2021/01/09 07:23:50;;;;;;;50.38;21.10;;;1.80;95.60;;;;;;5049494;28;20208;-75
2021/01/09 07:26:18;;;;;;;49.78;21.38;;;1.70;95.70;;;;;;5055238;28;20211;-74
2021/01/09 07:28:46;;;;;;;57.28;23.05;;;1.70;95.80;;;;;;5063309;28;20195;-76
2021/01/09 07:31:13;;;;;;;58.50;22.30;;;1.80;95.90;;;;;;5070232;28;20230;-76
2021/01/09 07:33:43;;;;;;;49.53;21.27;;;1.80;95.80;;;;;;5072552;28;20223;-74
2021/01/09 07:36:12;;;;;;;58.45;22.17;;;1.80;95.90;;;;;;5072187;28;20574;-75
2021/01/09 07:38:47;;;;;;;51.97;23.33;;;1.80;95.80;;;;;;5060965;28;20188;-75
2021/01/09 07:41:37;;;;;;;63.78;25.45;;;1.80;95.80;;;;;;5059909;28;20182;-75
2021/01/09 07:44:14;;;;;;;58.20;22.95;;;1.70;95.70;;;;;;5053849;28;20262;-75
2021/01/09 07:47:05;;;;;;;57.08;23.23;;;1.60;96.20;;;;;;5051507;28;20192;-73
2021/01/09 07:49:31;;;;;;;55.47;22.25;;;1.40;96.70;;;;;;5061712;28;20184;-75
2021/01/09 07:52:01;;;;;;;61.85;23.10;;;1.40;97.10;;;;;;5059403;28;20591;-73
2021/01/09 07:54:47;;;;;;;53.83;23.45;;;1.50;97.40;;;;;;5072174;28;20207;-73
2021/01/09 07:57:18;;;;;;;61.22;24.70;;;1.40;97.50;;;;;;5067358;28;20199;-72
2021/01/09 07:59:53;;;;;;;60.30;24.42;;;1.30;98.00;;;;;;5053311;28;20184;-72
2021/01/09 08:02:26;;;;;;;62.70;24.23;;;1.30;98.50;;;;;;5060715;28;20859;-72
2021/01/09 08:05:05;;;;;;;58.20;24.15;;;1.40;98.90;;;;;;5057801;28;20203;-72
2021/01/09 08:07:32;;;;;;;56.40;22.88;;;1.50;99.20;;;;;;5054712;28;20203;-73
2021/01/09 08:09:58;;;;;;;50.65;22.00;;;1.60;99.20;;;;;;5051438;28;20192;-72
2021/01/09 08:12:28;;;;;;;55.03;22.15;;;1.50;99.00;;;;;;5052249;28;20212;-72
2021/01/09 08:14:58;;;;;;;52.88;22.65;;;1.50;98.90;;;;;;5062121;28;20958;-73
2021/01/09 08:17:24;;;;;;;53.25;23.13;;;1.50;98.90;;;;;;5049225;28;20209;-74
2021/01/09 08:19:49;;;;;;;52.72;23.30;;;1.60;99.00;;;;;;5053471;28;20685;-73
2021/01/09 08:22:16;;;;;;;52.47;22.00;;;1.70;98.90;;;;;;5057485;28;20287;-73
2021/01/09 08:24:42;;;;;;;52.85;22.42;;;1.80;98.80;;;;;;5048520;28;20533;-73
2021/01/09 08:27:07;;;;;;;54.03;23.00;;;1.80;98.60;;;;;;5047181;28;20206;-71
2021/01/09 08:29:33;;;;;;;54.20;24.47;;;1.80;98.40;;;;;;5049760;28;20437;-72
2021/01/09 08:32:00;;;;;;;61.88;24.88;;;1.70;98.00;;;;;;5048346;28;20192;-74
2021/01/09 08:34:25;;;;;;;53.30;21.75;;;1.70;98.00;;;;;;5048284;28;20289;-73
2021/01/09 08:36:56;;;;;;;54.87;23.70;;;1.70;98.00;;;;;;5048775;28;20238;-73
2021/01/09 08:39:23;;;;;;;57.67;23.52;;;1.70;98.00;;;;;;5049373;28;20204;-72
2021/01/09 08:41:48;;;;;;;52.30;22.42;;;1.70;98.00;;;;;;5061433;28;20187;-70
2021/01/09 08:44:15;;;;;;;57.00;25.60;;;1.70;98.00;;;;;;5053470;28;20735;-72
2021/01/09 08:46:43;;;;;;;58.58;24.85;;;1.70;97.90;;;;;;5056736;28;20455;-71
2021/01/09 08:49:28;;;;;;;60.15;24.67;;;1.60;97.70;;;;;;5047635;28;20196;-72
2021/01/09 08:52:05;;;;;;;59.47;24.77;;;1.50;97.80;;;;;;5047638;28;20272;-73
2021/01/09 08:54:32;;;;;;;67.68;24.15;;;1.40;97.90;;;;;;5047504;28;20406;-73
2021/01/09 08:57:00;;;;;;;62.65;24.65;;;1.30;98.20;;;;;;5051505;28;20212;-71
2021/01/09 08:59:26;;;;;;;70.07;26.10;;;1.40;98.30;;;;;;5058119;28;20320;-73
2021/01/09 09:01:57;;;;;;;63.58;24.70;;;1.40;98.10;;;;;;5048403;28;20242;-71
2021/01/09 09:04:24;;;;;;;65.60;22.15;;;1.50;98.00;;;;;;5047931;28;20208;-73
2021/01/09 09:07:04;;;;;;;58.17;23.77;;;1.50;97.60;;;;;;5053035;28;20203;-72
2021/01/09 09:09:32;;;;;;;55.53;23.65;;;1.50;97.50;;;;;;5069478;28;20187;-73
2021/01/09 09:11:57;;;;;;;60.40;23.55;;;1.60;97.60;;;;;;5061525;28;20196;-72
2021/01/09 09:14:25;;;;;;;57.37;24.00;;;1.70;97.70;;;;;;5048149;28;20262;-73
2021/01/09 09:16:59;;;;;;;51.90;22.48;;;1.70;97.20;;;;;;5062247;28;20603;-71
2021/01/09 09:19:25;;;;;;;59.22;24.30;;;1.80;97.00;;;;;;5048803;28;20773;-72
2021/01/09 09:21:58;;;;;;;54.03;22.67;;;1.70;96.70;;;;;;5048220;28;20198;-72
2021/01/09 09:24:41;;;;;;;56.53;21.50;;;1.80;96.70;;;;;;5049190;28;20208;-73
2021/01/09 09:27:23;;;;;;;54.75;22.77;;;1.80;96.30;;;;;;5051326;28;20979;-76
2021/01/09 09:29:49;;;;;;;55.28;21.17;;;1.60;96.00;;;;;;5055937;28;20207;-74
2021/01/09 09:32:28;;;;;;;59.17;22.90;;;1.70;96.20;;;;;;5053929;28;20275;-73
2021/01/09 09:34:54;;;;;;;52.05;21.38;;;1.60;96.00;;;;;;5038110;28;20238;-73
2021/01/09 09:37:20;;;;;;;57.80;23.13;;;1.50;96.20;;;;;;5048159;28;20374;-73
2021/01/09 09:39:46;;;;;;;52.90;20.77;;;1.50;96.20;;;;;;5048440;28;20267;-73
2021/01/09 09:42:12;;;;;;;54.80;20.73;;;1.50;96.50;;;;;;5048079;28;20188;-73
2021/01/09 09:44:42;;;;;;;49.63;20.73;;;1.60;96.70;;;;;;5048105;28;20212;-73
2021/01/09 09:47:27;;;;;;;46.45;19.10;;;1.50;96.20;;;;;;5048170;28;20817;-73
2021/01/09 09:49:58;;;;;;;46.22;17.45;;;1.50;95.80;;;;;;5059497;28;20599;-73
2021/01/09 09:52:24;;;;;;;42.85;18.00;;;1.60;95.90;;;;;;5049978;28;20188;-74
2021/01/09 09:55:06;;;;;;;49.33;19.93;;;1.60;95.60;;;;;;5046659;28;20589;-74
2021/01/09 09:57:32;;;;;;;47.72;19.02;;;1.60;95.10;;;;;;5035295;28;20218;-73
2021/01/09 10:00:13;;;;;;;48.53;20.40;;;1.50;94.70;;;;;;5047750;28;20621;-72
2021/01/09 10:02:53;;;;;;;44.88;18.23;;;1.40;95.00;;;;;;5057568;28;20509;-73
2021/01/09 10:05:19;;;;;;;44.30;17.63;;;1.40;95.40;;;;;;5065945;28;20211;-74
2021/01/09 10:07:45;;;;;;;45.88;18.00;;;1.40;95.20;;;;;;5066436;28;20188;-76
2021/01/09 10:10:15;;;;;;;47.80;17.30;;;1.40;95.00;;;;;;5065214;28;20203;-73
2021/01/09 10:12:41;;;;;;;42.03;16.50;;;1.40;94.60;;;;;;5065710;28;20226;-73
2021/01/09 10:15:08;;;;;;;43.73;17.40;;;1.30;94.80;;;;;;5050887;28;20686;-74
2021/01/09 10:17:34;;;;;;;41.22;17.40;;;1.30;94.70;;;;;;5054783;28;20459;-72
2021/01/09 10:20:00;;;;;;;39.60;17.17;;;1.40;94.80;;;;;;5052068;28;20544;-74
2021/01/09 10:22:25;;;;;;;37.13;17.20;;;1.50;94.50;;;;;;5054764;28;20415;-73
2021/01/09 10:24:51;;;;;;;40.90;17.00;;;1.60;94.50;;;;;;5045873;28;20211;-72
2021/01/09 10:27:17;;;;;;;40.70;17.00;;;1.80;94.50;;;;;;5046443;28;20199;-73
2021/01/09 10:29:42;;;;;;;40.80;16.80;;;1.90;94.10;;;;;;5064567;28;20184;-72
2021/01/09 10:32:08;;;;;;;39.30;17.20;;;1.90;92.90;;;;;;5052359;28;20188;-74
2021/01/09 10:34:33;;;;;;;37.73;17.00;;;2.00;92.40;;;;;;5051142;28;20227;-73
2021/01/09 10:36:59;;;;;;;46.50;17.80;;;2.00;92.20;;;;;;5048294;28;20220;-74
2021/01/09 10:39:25;;;;;;;37.43;16.77;;;1.90;91.90;;;;;;5046818;28;20184;-72
2021/01/09 10:41:51;;;;;;;33.50;15.87;;;1.90;92.20;;;;;;5046581;28;20195;-73
2021/01/09 10:44:16;;;;;;;40.80;15.03;;;1.90;92.20;;;;;;5045621;28;21002;-72
2021/01/09 10:46:42;;;;;;;41.77;16.60;;;1.90;91.80;;;;;;5047260;28;20185;-75
2021/01/09 10:49:08;;;;;;;44.87;18.37;;;1.70;91.90;;;;;;5049147;28;20720;-74
2021/01/09 10:51:34;;;;;;;43.03;16.37;;;1.70;92.30;;;;;;5049596;28;20451;-74
2021/01/09 10:54:03;;;;;;;32.78;15.43;;;1.80;92.50;;;;;;5049298;28;20621;-72
2021/01/09 10:56:29;;;;;;;41.45;17.42;;;1.70;91.70;;;;;;5047299;28;20305;-74
2021/01/09 10:58:54;;;;;;;38.87;16.27;;;1.80;92.20;;;;;;5047164;28;20207;-74
2021/01/09 11:01:21;;;;;;;39.90;15.67;;;1.80;91.60;;;;;;5051837;28;20194;-74
2021/01/09 11:03:47;;;;;;;39.47;15.45;;;1.90;91.90;;;;;;5072423;28;20206;-74
2021/01/09 11:06:22;;;;;;;39.77;14.90;;;2.00;91.80;;;;;;5059905;28;20192;-73
2021/01/09 11:08:48;;;;;;;34.72;14.77;;;2.20;91.50;;;;;;5053032;28;20187;-73
2021/01/09 11:11:14;;;;;;;36.45;15.70;;;2.30;91.20;;;;;;5051817;28;20192;-73
2021/01/09 11:13:40;;;;;;;36.07;15.93;;;2.40;90.90;;;;;;5053403;28;20187;-74
2021/01/09 11:16:06;;;;;;;40.20;16.50;;;2.50;90.60;;;;;;5052412;28;20544;-73
2021/01/09 11:18:32;;;;;;;40.90;16.27;;;2.50;90.00;;;;;;5060188;28;20418;-73
2021/01/09 11:20:57;;;;;;;38.33;15.63;;;2.60;89.90;;;;;;5058780;28;20195;-73
2021/01/09 11:23:23;;;;;;;30.47;13.97;;;2.60;89.00;;;;;;5052682;28;20283;-73
2021/01/09 11:25:50;;;;;;;39.23;15.40;;;2.60;89.20;;;;;;5050722;28;20203;-72
2021/01/09 11:28:16;;;;;;;25.85;12.10;;;2.50;87.80;;;;;;5051911;28;20571;-73
2021/01/09 11:30:44;;;;;;;29.08;11.95;;;2.60;87.40;;;;;;5053506;28;20188;-74
2021/01/09 11:33:10;;;;;;;39.03;14.35;;;2.70;86.60;;;;;;5065820;28;20679;-72
2021/01/09 11:35:38;;;;;;;34.28;15.43;;;2.80;85.70;;;;;;5052637;28;20212;-73
2021/01/09 11:38:04;;;;;;;23.80;12.80;;;3.00;85.30;;;;;;5054168;28;20238;-73
2021/01/09 11:40:30;;;;;;;27.63;12.07;;;3.10;84.70;;;;;;5051840;28;20251;-73
2021/01/09 11:42:56;;;;;;;22.90;11.18;;;3.30;83.00;;;;;;5052818;28;20185;-72
2021/01/09 11:45:23;;;;;;;25.67;11.30;;;3.40;79.00;;;;;;5053873;28;20259;-74
2021/01/09 11:47:49;;;;;;;23.40;9.82;;;3.40;77.10;;;;;;5065247;28;20485;-75
2021/01/09 11:50:15;;;;;;;23.40;10.88;;;3.50;76.70;;;;;;5071085;28;20196;-76
2021/01/09 11:52:41;;;;;;;24.48;10.75;;;3.50;77.30;;;;;;5057362;28;20212;-75
2021/01/09 11:55:07;;;;;;;23.93;11.67;;;3.50;76.40;;;;;;5052939;28;20239;-73
2021/01/09 11:57:33;;;;;;;24.75;11.05;;;3.40;76.80;;;;;;5052503;28;20462;-74
2021/01/09 11:59:59;;;;;;;23.30;10.07;;;3.30;77.40;;;;;;5051467;28;20584;-73
2021/01/09 12:02:25;;;;;;;23.97;9.57;;;3.20;76.80;;;;;;5053122;28;20179;-74
2021/01/09 12:04:50;;;;;;;21.50;10.07;;;3.10;76.10;;;;;;5052191;28;20200;-73
2021/01/09 12:07:16;;;;;;;15.93;8.30;;;2.90;75.50;;;;;;5052776;28;20188;-73
2021/01/09 12:09:42;;;;;;;22.00;9.80;;;2.90;76.40;;;;;;5053157;28;20635;-72
2021/01/09 12:12:08;;;;;;;21.53;10.10;;;2.90;76.70;;;;;;5059211;28;20869;-72
2021/01/09 12:14:34;;;;;;;20.73;9.73;;;2.90;75.90;;;;;;5054102;28;20262;-72
2021/01/09 12:17:00;;;;;;;22.03;9.30;;;2.80;76.70;;;;;;5048566;28;20608;-72
2021/01/09 12:19:27;;;;;;;17.92;8.52;;;2.70;75.40;;;;;;5050035;28;20461;-73
2021/01/09 12:21:53;;;;;;;19.13;8.98;;;2.50;76.40;;;;;;5050065;28;20640;-72
2021/01/09 12:24:19;;;;;;;20.08;9.50;;;2.50;77.80;;;;;;5048468;28;20827;-72
2021/01/09 12:26:49;;;;;;;19.73;9.50;;;2.50;78.70;;;;;;5055822;28;20241;-72
2021/01/09 12:29:15;;;;;;;18.27;9.43;;;2.60;78.70;;;;;;5054917;28;20185;-73
2021/01/09 12:31:40;;;;;;;21.53;8.33;;;2.60;78.00;;;;;;5048562;28;20628;-73
2021/01/09 12:34:06;;;;;;;22.70;8.93;;;2.60;77.80;;;;;;5048918;28;20224;-74
2021/01/09 12:36:32;;;;;;;18.37;8.83;;;2.50;78.00;;;;;;5048956;28;20257;-73
2021/01/09 12:38:58;;;;;;;17.97;8.10;;;2.40;77.10;;;;;;5049315;28;20897;-72
2021/01/09 12:41:38;;;;;;;15.97;7.90;;;2.40;76.50;;;;;;5049611;28;20180;-72
2021/01/09 12:44:05;;;;;;;16.48;7.65;;;2.40;75.70;;;;;;5047637;28;20212;-73